Time;durP1;ratioP1;P1;durP2;ratioP2;P2;SDS_P1;SDS_P2;PMS_P1;PMS_P2;Temp;Humidity;BMP_temperature;BMP_pressure;BME280_temperature;BME280_humidity;BME280_pressure;Samples;Min_cycle;Max_cycle;Signal;HPM_P1;HPM_P2
2023/05/20 00:00:33;;;;;;;5.10;4.80;;;;;;;10.55;72.46;101472.19;6108359;23;20087;-71
2023/05/20 00:03:00;;;;;;;5.35;4.88;;;;;;;10.97;72.34;101544.91;6095096;23;20037;-71
2023/05/20 00:05:27;;;;;;;4.80;4.55;;;;;;;11.28;72.56;101613.75;6113244;23;20029;-71
2023/05/20 00:07:53;;;;;;;4.90;4.60;;;;;;;11.25;72.99;101609.47;6055394;23;20120;-70
2023/05/20 00:10:20;;;;;;;5.25;4.90;;;;;;;11.01;72.76;101574.53;6086959;23;20051;-70
2023/05/20 00:12:46;;;;;;;5.15;4.82;;;;;;;11.21;73.34;101612.31;6086079;23;20049;-70
2023/05/20 00:15:13;;;;;;;5.30;4.90;;;;;;;10.57;73.49;101511.50;6121196;23;20009;-70
2023/05/20 00:17:39;;;;;;;4.68;4.47;;;;;;;9.99;73.30;101423.59;6117800;23;20021;-70
2023/05/20 00:20:07;;;;;;;5.22;4.93;;;;;;;10.98;73.23;101590.41;6095049;23;20044;-71
2023/05/20 00:22:33;;;;;;;4.60;4.35;;;;;;;10.54;73.08;101517.75;6120212;23;20497;-70
2023/05/20 00:25:00;;;;;;;5.18;4.80;;;;;;;11.09;73.43;101619.75;6107006;23;20051;-71
2023/05/20 00:27:26;;;;;;;4.95;4.65;;;;;;;10.84;73.28;101577.81;6119064;23;20094;-71
2023/05/20 00:29:52;;;;;;;5.35;5.05;;;;;;;11.17;73.22;101620.28;6092649;23;20037;-70
2023/05/20 00:32:19;;;;;;;5.38;5.00;;;;;;;10.75;73.45;101547.53;6083711;23;20040;-71
2023/05/20 00:34:58;;;;;;;5.13;4.82;;;;;;;11.08;72.74;101588.28;6098627;23;20117;-71
2023/05/20 00:37:25;;;;;;;4.78;4.57;;;;;;;10.82;73.37;101547.28;6114597;23;20023;-71
2023/05/20 00:39:51;;;;;;;5.15;4.82;;;;;;;11.18;73.29;101615.88;6101716;23;20053;-69
2023/05/20 00:42:21;;;;;;;5.28;4.97;;;;;;;11.17;73.53;101622.91;6123193;23;20055;-71
2023/05/20 00:44:48;;;;;;;4.95;4.75;;;;;;;11.22;72.69;101612.22;6134938;23;20058;-71
2023/05/20 00:47:17;;;;;;;4.97;4.68;;;;;;;10.96;72.44;101558.09;6088499;23;20038;-70
2023/05/20 00:49:45;;;;;;;5.53;4.53;;;;;;;11.10;73.05;101579.41;6127101;23;20029;-70
2023/05/20 00:52:17;;;;;;;6.32;5.93;;;;;;;11.27;73.00;101612.06;6110034;23;20025;-70
2023/05/20 00:54:44;;;;;;;5.47;5.10;;;;;;;11.22;73.09;101611.38;6101379;23;20052;-71
2023/05/20 00:57:11;;;;;;;5.00;4.80;;;;;;;10.84;73.41;101550.72;6118806;23;20008;-70
2023/05/20 00:59:38;;;;;;;5.68;5.13;;;;;;;10.35;73.65;101488.72;6089859;23;20036;-71
2023/05/20 01:02:05;;;;;;;5.60;5.20;;;;;;;10.94;73.94;101600.19;6121465;23;20036;-71
2023/05/20 01:04:32;;;;;;;4.53;4.32;;;;;;;10.93;74.15;101619.47;6098461;23;20039;-71
2023/05/20 01:07:03;;;;;;;4.82;4.53;;;;;;;10.87;74.46;101608.38;6119419;23;20037;-70
2023/05/20 01:09:31;;;;;;;5.63;5.18;;;;;;;10.80;74.95;101612.97;6064742;23;20010;-71
2023/05/20 01:12:29;;;;;;;5.93;4.78;;;;;;;10.70;75.13;101609.00;6120183;23;20043;-70
2023/05/20 01:15:03;;;;;;;5.40;5.00;;;;;;;10.65;75.67;101610.97;6111353;23;20020;-70
2023/05/20 01:17:36;;;;;;;4.90;4.70;;;;;;;9.25;75.64;101385.31;6115213;23;20018;-70
2023/05/20 01:20:06;;;;;;;5.18;4.82;;;;;;;10.13;76.04;101542.88;6093525;23;20610;-70
2023/05/20 01:22:32;;;;;;;4.78;4.55;;;;;;;9.89;76.14;101521.88;6116041;23;20025;-71
2023/05/20 01:24:59;;;;;;;4.97;4.68;;;;;;;10.27;76.42;101590.44;6087472;23;20029;-70
2023/05/20 01:27:25;;;;;;;4.93;4.63;;;;;;;10.19;77.14;101584.63;6119058;23;20022;-70
2023/05/20 01:29:52;;;;;;;4.65;4.40;;;;;;;10.34;77.68;101617.34;6071544;23;20082;-70
2023/05/20 01:32:21;;;;;;;5.00;4.70;;;;;;;10.37;77.79;101627.72;6115307;23;20060;-70
2023/05/20 01:34:50;;;;;;;5.05;4.55;;;;;;;10.27;78.00;101613.19;6098411;23;20020;-70
2023/05/20 01:37:18;;;;;;;4.93;4.63;;;;;;;9.72;78.42;101524.22;6119496;23;20038;-71
2023/05/20 01:39:48;;;;;;;5.07;4.78;;;;;;;10.36;78.44;101624.25;6100453;23;20030;-71
2023/05/20 01:42:18;;;;;;;4.80;4.60;;;;;;;10.29;79.11;101620.09;6111834;23;20628;-70
2023/05/20 01:44:45;;;;;;;4.75;4.47;;;;;;;10.30;78.90;101619.22;6117381;23;20017;-70
2023/05/20 01:47:12;;;;;;;6.38;5.60;;;;;;;10.07;78.31;101585.06;6086598;23;20025;-71
2023/05/20 01:49:38;;;;;;;4.95;4.50;;;;;;;10.07;78.52;101603.44;6120817;23;20094;-71
2023/05/20 01:52:05;;;;;;;5.50;4.90;;;;;;;10.27;78.96;101616.69;6093306;23;20075;-70
2023/05/20 01:54:31;;;;;;;6.53;5.10;;;;;;;10.31;79.12;101613.06;6117134;23;20045;-71
2023/05/20 01:56:58;;;;;;;5.13;4.82;;;;;;;10.30;79.15;101614.00;6111533;23;20040;-70
2023/05/20 01:59:24;;;;;;;4.85;4.65;;;;;;;10.25;79.61;101610.63;6069492;23;20097;-70
2023/05/20 02:01:51;;;;;;;4.80;4.55;;;;;;;10.16;79.63;101601.34;6093114;23;20025;-70
2023/05/20 02:04:18;;;;;;;5.40;5.05;;;;;;;9.89;80.03;101568.22;6118161;23;20017;-70
2023/05/20 02:06:44;;;;;;;4.90;4.60;;;;;;;10.10;80.54;101605.91;6112293;23;20033;-70
2023/05/20 02:09:11;;;;;;;9.13;4.75;;;;;;;10.04;81.04;101595.66;6087622;23;20036;-71
2023/05/20 02:11:37;;;;;;;5.45;5.10;;;;;;;9.79;80.95;101565.91;6089795;23;20070;-71
2023/05/20 02:14:04;;;;;;;4.80;4.57;;;;;;;9.81;80.48;101554.53;6117409;23;20041;-71
2023/05/20 02:16:30;;;;;;;5.28;4.97;;;;;;;10.11;80.95;101611.13;6091444;23;20692;-70
2023/05/20 02:18:57;;;;;;;10.32;4.55;;;;;;;9.97;80.97;101590.63;6114253;23;20054;-71
2023/05/20 02:21:25;;;;;;;5.03;4.72;;;;;;;10.04;81.14;101599.13;6119220;23;21417;-71
2023/05/20 02:23:51;;;;;;;6.28;4.90;;;;;;;10.06;81.10;101604.31;6095200;23;20029;-71
2023/05/20 02:26:19;;;;;;;5.57;5.18;;;;;;;10.09;81.24;101601.59;6094338;23;20034;-71
2023/05/20 02:28:49;;;;;;;5.43;5.05;;;;;;;10.11;81.19;101598.00;6092675;23;20037;-71
2023/05/20 02:31:16;;;;;;;5.13;4.72;;;;;;;9.55;81.42;101509.97;6113718;23;20088;-71
2023/05/20 02:33:43;;;;;;;5.20;4.90;;;;;;;9.74;80.64;101544.25;6115287;23;20613;-71
2023/05/20 02:36:10;;;;;;;5.57;5.22;;;;;;;10.15;81.39;101598.75;6104481;23;20472;-71
2023/05/20 02:38:36;;;;;;;5.90;5.10;;;;;;;10.01;81.63;101580.88;6117040;23;20736;-71
2023/05/20 02:41:03;;;;;;;5.53;5.13;;;;;;;9.89;81.50;101548.09;6085666;23;20096;-71
2023/05/20 02:43:31;;;;;;;5.13;4.82;;;;;;;10.19;81.69;101600.34;6119704;23;20025;-72
2023/05/20 02:45:57;;;;;;;12.45;5.20;;;;;;;9.83;81.81;101518.63;6115759;23;20489;-72
2023/05/20 02:48:24;;;;;;;4.57;4.38;;;;;;;10.17;82.10;101597.78;6089670;23;21444;-72
2023/05/20 02:50:51;;;;;;;4.93;4.70;;;;;;;10.05;82.30;101585.13;6122222;23;20081;-71
2023/05/20 02:53:18;;;;;;;5.72;5.18;;;;;;;10.08;82.22;101592.00;6086765;23;20072;-71
2023/05/20 02:55:48;;;;;;;6.07;5.57;;;;;;;10.05;82.42;101589.50;6113496;23;20045;-71
2023/05/20 02:58:16;;;;;;;5.10;4.70;;;;;;;9.34;82.83;101481.88;6120861;23;20436;-72
2023/05/20 03:00:42;;;;;;;4.68;4.32;;;;;;;9.66;83.33;101542.78;6115955;23;20020;-72
2023/05/20 03:03:09;;;;;;;5.88;4.95;;;;;;;9.70;83.59;101566.25;6119734;23;20028;-71
2023/05/20 03:05:36;;;;;;;4.80;4.50;;;;;;;9.76;84.98;101580.88;6118312;23;20096;-70
2023/05/20 03:08:08;;;;;;;5.50;5.05;;;;;;;9.69;85.13;101575.00;6063062;23;20081;-71
2023/05/20 03:10:38;;;;;;;5.40;4.85;;;;;;;9.69;85.90;101575.00;6116523;23;20009;-71
2023/05/20 03:13:10;;;;;;;5.05;4.70;;;;;;;9.73;86.84;101581.84;6119618;23;20025;-70
2023/05/20 03:15:37;;;;;;;5.50;5.07;;;;;;;9.79;86.41;101586.03;6088511;23;20094;-71
2023/05/20 03:18:05;;;;;;;5.20;4.90;;;;;;;9.77;86.11;101572.13;6087177;23;20017;-71
2023/05/20 03:20:37;;;;;;;5.28;4.97;;;;;;;9.83;86.07;101577.16;6109997;23;20021;-71
2023/05/20 03:23:04;;;;;;;4.80;4.40;;;;;;;9.80;85.52;101556.28;6098815;23;20086;-71
2023/05/20 03:25:30;;;;;;;6.05;5.32;;;;;;;9.85;85.82;101569.25;6112530;23;20169;-71
2023/05/20 03:27:58;;;;;;;5.13;4.82;;;;;;;9.43;85.82;101485.97;6116408;23;20136;-71
2023/05/20 03:30:27;;;;;;;5.32;4.82;;;;;;;9.75;86.40;101551.19;6087349;23;20299;-71
2023/05/20 03:32:56;;;;;;;5.40;5.07;;;;;;;9.78;86.34;101555.47;6118484;23;20033;-71
2023/05/20 03:35:23;;;;;;;5.60;5.10;;;;;;;9.54;85.91;101502.16;6119381;23;20017;-71
2023/05/20 03:37:53;;;;;;;5.50;5.10;;;;;;;9.86;85.69;101547.34;6097494;23;20017;-71
2023/05/20 03:40:20;;;;;;;5.25;4.95;;;;;;;9.54;85.40;101496.91;6082606;23;20029;-71
2023/05/20 03:42:46;;;;;;;5.78;5.38;;;;;;;9.85;85.89;101549.13;6089352;23;20050;-72
2023/05/20 03:45:13;;;;;;;5.90;5.50;;;;;;;9.99;85.28;101551.25;6112532;23;20018;-72
2023/05/20 03:47:39;;;;;;;6.60;4.72;;;;;;;10.08;84.91;101550.03;6111890;23;20030;-73
2023/05/20 03:50:06;;;;;;;6.25;5.30;;;;;;;9.97;84.74;101535.56;6113561;23;20025;-73
2023/05/20 03:52:33;;;;;;;6.00;5.50;;;;;;;10.07;83.91;101524.75;6113979;23;20522;-72
2023/05/20 03:55:00;;;;;;;5.32;4.88;;;;;;;10.23;83.86;101548.66;6088104;23;20037;-73
2023/05/20 03:57:28;;;;;;;6.28;5.68;;;;;;;10.21;83.14;101551.31;6125213;23;20427;-73
2023/05/20 03:59:54;;;;;;;5.60;5.10;;;;;;;10.21;83.50;101550.47;6088820;23;20037;-74
2023/05/20 04:02:21;;;;;;;5.70;5.30;;;;;;;9.00;83.59;101346.91;6123836;23;20079;-73
2023/05/20 04:04:51;;;;;;;5.07;4.88;;;;;;;9.02;83.46;101350.31;6087856;23;20038;-73
2023/05/20 04:07:18;;;;;;;5.40;5.00;;;;;;;9.79;83.74;101463.66;6110677;23;20424;-73
2023/05/20 04:09:45;;;;;;;5.10;4.80;;;;;;;10.02;83.14;101456.72;6114646;23;20033;-74
2023/05/20 04:12:12;;;;;;;8.65;5.82;;;;;;;11.22;81.75;101570.16;6115908;23;20021;-74
2023/05/20 04:14:40;;;;;;;5.80;5.30;;;;;;;11.65;79.43;101554.41;6106344;23;20025;-74
2023/05/20 04:17:08;;;;;;;5.47;5.13;;;;;;;11.95;76.73;101518.88;6114807;23;20028;-74
2023/05/20 04:19:35;;;;;;;5.65;5.20;;;;;;;12.18;74.50;101495.94;6109296;23;20013;-74
2023/05/20 04:22:01;;;;;;;5.55;5.25;;;;;;;12.12;72.98;101452.34;6066462;23;20032;-74
2023/05/20 04:24:28;;;;;;;6.03;5.53;;;;;;;11.46;73.32;101360.66;6114186;23;20037;-73
2023/05/20 04:26:55;;;;;;;6.53;5.65;;;;;;;12.01;72.70;101441.47;6090907;23;20054;-74
2023/05/20 04:29:21;;;;;;;5.82;5.43;;;;;;;12.07;72.93;101464.88;6109914;23;20033;-72
2023/05/20 04:31:48;;;;;;;6.25;5.85;;;;;;;12.32;72.15;101468.97;6117946;23;20025;-73
2023/05/20 04:34:18;;;;;;;5.45;5.15;;;;;;;12.57;71.89;101445.81;6114369;23;20034;-72
2023/05/20 04:36:44;;;;;;;6.28;5.70;;;;;;;12.12;69.90;101275.19;6085058;23;20030;-73
2023/05/20 04:39:11;;;;;;;6.45;5.95;;;;;;;13.19;68.65;101395.34;6086238;23;20019;-75
2023/05/20 04:41:38;;;;;;;5.50;5.10;;;;;;;13.54;67.13;101404.03;6114961;23;20097;-74
2023/05/20 04:44:05;;;;;;;5.82;5.43;;;;;;;12.91;67.26;101338.78;6110064;23;20033;-74
2023/05/20 04:46:32;;;;;;;5.60;5.30;;;;;;;13.42;66.82;101383.59;6080317;23;20748;-73
2023/05/20 04:48:59;;;;;;;6.03;5.60;;;;;;;13.53;65.31;101304.78;6110804;23;20122;-74
2023/05/20 04:51:25;;;;;;;5.97;5.47;;;;;;;14.48;65.20;101421.78;6094928;23;20030;-74
2023/05/20 04:53:52;;;;;;;5.53;5.15;;;;;;;14.52;63.71;101336.16;6086547;23;20030;-74
2023/05/20 04:56:18;;;;;;;7.10;6.70;;;;;;;14.57;63.07;101360.53;6095029;23;20029;-74
2023/05/20 04:58:45;;;;;;;6.10;5.50;;;;;;;14.74;63.64;101385.97;6115673;23;20025;-74
2023/05/20 05:01:11;;;;;;;7.13;5.63;;;;;;;14.40;62.80;101298.09;6121832;23;20037;-74
2023/05/20 05:03:38;;;;;;;5.93;5.57;;;;;;;14.92;61.97;101317.97;6113854;23;20094;-74
2023/05/20 05:06:04;;;;;;;7.07;5.75;;;;;;;14.00;62.36;101181.66;6094898;23;20087;-74
2023/05/20 05:08:33;;;;;;;5.90;5.50;;;;;;;15.32;61.79;101371.88;6094663;23;20044;-74
2023/05/20 05:11:00;;;;;;;5.82;5.38;;;;;;;15.01;60.87;101242.53;6071946;23;20578;-74
2023/05/20 05:13:26;;;;;;;6.35;5.93;;;;;;;14.87;60.51;101219.59;6119224;23;20029;-72
2023/05/20 05:15:59;;;;;;;7.15;5.70;;;;;;;15.28;60.75;101298.97;6117554;23;20075;-74
2023/05/20 05:18:26;;;;;;;6.32;5.93;;;;;;;14.08;60.23;101083.56;6119573;23;20054;-73
2023/05/20 05:21:00;;;;;;;6.07;5.68;;;;;;;14.80;60.89;101276.44;6117120;23;20089;-74
2023/05/20 05:23:27;;;;;;;6.25;5.82;;;;;;;15.05;61.79;101350.63;6116761;23;20029;-74
2023/05/20 05:25:54;;;;;;;6.40;5.90;;;;;;;14.24;61.84;101224.22;6117288;23;20029;-74
2023/05/20 05:28:20;;;;;;;5.90;5.55;;;;;;;14.76;62.29;101345.28;6116532;23;20061;-73
2023/05/20 05:30:47;;;;;;;5.63;5.32;;;;;;;14.84;62.31;101339.56;6111380;23;20033;-74
2023/05/20 05:33:14;;;;;;;6.15;5.70;;;;;;;15.23;61.01;101327.50;6097081;23;20308;-74
2023/05/20 05:35:41;;;;;;;6.07;5.57;;;;;;;15.55;61.20;101366.97;6109552;23;20021;-74
2023/05/20 05:38:09;;;;;;;5.72;5.32;;;;;;;15.15;61.43;101296.25;6095762;23;20116;-73
2023/05/20 05:40:36;;;;;;;5.97;5.63;;;;;;;15.21;60.22;101246.56;6115225;23;20033;-74
2023/05/20 05:43:02;;;;;;;5.63;5.32;;;;;;;15.73;60.01;101294.38;6092436;23;20029;-74
2023/05/20 05:45:29;;;;;;;6.25;5.80;;;;;;;15.75;60.31;101313.69;6088986;23;20029;-74
2023/05/20 05:47:55;;;;;;;5.82;5.50;;;;;;;15.62;59.97;101327.75;6117715;23;20456;-74
2023/05/20 05:50:22;;;;;;;5.95;5.57;;;;;;;15.31;60.80;101292.63;6087137;23;20022;-74
2023/05/20 05:52:48;;;;;;;5.78;5.45;;;;;;;15.61;60.60;101341.91;6118815;23;20030;-74
2023/05/20 05:55:17;;;;;;;5.72;5.43;;;;;;;15.19;60.35;101285.47;6116460;23;20029;-74
2023/05/20 05:57:43;;;;;;;6.38;5.88;;;;;;;14.86;60.59;101270.75;6107522;23;20746;-74
2023/05/20 06:00:10;;;;;;;6.15;5.75;;;;;;;14.79;60.68;101246.47;6113370;23;20024;-74
2023/05/20 06:02:37;;;;;;;6.13;5.55;;;;;;;14.95;60.40;101275.47;6117477;23;20741;-73
2023/05/20 06:05:04;;;;;;;6.05;5.68;;;;;;;14.88;61.32;101298.78;6117432;23;20230;-73
2023/05/20 06:07:31;;;;;;;5.93;5.53;;;;;;;15.10;62.14;101358.28;6108595;23;20056;-73
2023/05/20 06:09:58;;;;;;;6.07;5.50;;;;;;;14.71;60.67;101277.81;6116991;23;20032;-73
2023/05/20 06:12:24;;;;;;;5.85;5.55;;;;;;;14.36;62.14;101278.09;6113069;23;20486;-74
2023/05/20 06:14:51;;;;;;;6.00;5.60;;;;;;;14.43;62.43;101345.44;6118298;23;20039;-73
2023/05/20 06:17:17;;;;;;;6.03;5.63;;;;;;;13.69;63.51;101261.69;6088977;23;20480;-74
2023/05/20 06:19:44;;;;;;;6.05;5.60;;;;;;;14.46;63.96;101391.97;6123974;23;20021;-74
2023/05/20 06:22:10;;;;;;;5.75;5.35;;;;;;;14.31;63.59;101335.59;6118290;23;20061;-72
2023/05/20 06:24:37;;;;;;;5.40;5.10;;;;;;;14.94;62.65;101414.72;6116846;23;20226;-73
2023/05/20 06:27:03;;;;;;;6.18;5.78;;;;;;;14.62;63.60;101400.75;6088212;23;20080;-74
2023/05/20 06:29:30;;;;;;;5.78;5.38;;;;;;;14.95;62.99;101419.06;6114566;23;20030;-74
2023/05/20 06:31:56;;;;;;;6.15;5.70;;;;;;;14.86;63.17;101387.03;6116886;23;20017;-74
2023/05/20 06:34:23;;;;;;;6.28;5.78;;;;;;;15.00;62.70;101402.91;6120987;23;20033;-74
2023/05/20 06:36:49;;;;;;;5.50;5.10;;;;;;;15.02;62.97;101398.41;6118247;23;20134;-73
2023/05/20 06:39:16;;;;;;;5.78;5.40;;;;;;;15.00;63.81;101418.78;6117840;23;20106;-73
2023/05/20 06:41:43;;;;;;;6.22;5.80;;;;;;;14.91;64.40;101437.81;6114473;23;20041;-73
2023/05/20 06:44:09;;;;;;;5.88;5.35;;;;;;;14.70;63.52;101374.72;6092882;23;20892;-74
2023/05/20 06:46:35;;;;;;;6.10;5.50;;;;;;;14.32;64.06;101343.44;6090693;23;20033;-74
2023/05/20 06:49:02;;;;;;;6.63;6.00;;;;;;;14.62;63.54;101368.19;6086849;23;20405;-73
2023/05/20 06:51:29;;;;;;;9.60;5.30;;;;;;;14.90;63.88;101428.19;6113726;23;20048;-73
2023/05/20 06:53:56;;;;;;;5.35;5.05;;;;;;;14.84;64.86;101441.78;6112435;23;20036;-74
2023/05/20 06:56:22;;;;;;;5.75;5.45;;;;;;;14.74;64.43;101415.88;6084529;23;20014;-74
2023/05/20 06:58:52;;;;;;;5.70;5.35;;;;;;;14.31;64.37;101375.19;6105984;23;20096;-73
2023/05/20 07:01:18;;;;;;;6.55;6.05;;;;;;;14.06;64.72;101354.63;6112664;23;20014;-74
2023/05/20 07:03:45;;;;;;;5.03;4.78;;;;;;;14.23;64.89;101412.63;6090339;23;20034;-74
2023/05/20 07:06:11;;;;;;;6.68;5.47;;;;;;;14.00;64.88;101368.19;6112239;23;20535;-73
2023/05/20 07:08:38;;;;;;;7.13;5.70;;;;;;;14.51;65.39;101442.72;6123299;23;20233;-73
2023/05/20 07:11:04;;;;;;;6.13;5.72;;;;;;;14.41;64.93;101410.69;6096232;23;20029;-74
2023/05/20 07:13:31;;;;;;;5.90;5.50;;;;;;;14.56;65.25;101443.34;6112912;23;20021;-74
2023/05/20 07:15:57;;;;;;;6.82;6.25;;;;;;;14.53;64.50;101435.56;6090520;23;20025;-74
2023/05/20 07:18:24;;;;;;;6.10;5.57;;;;;;;14.57;66.29;101466.19;6117379;23;20045;-73
2023/05/20 07:20:51;;;;;;;5.50;5.20;;;;;;;13.79;66.01;101342.06;6113325;23;20017;-73
2023/05/20 07:23:17;;;;;;;6.45;5.95;;;;;;;14.29;65.95;101425.47;6085559;23;20055;-72
2023/05/20 07:25:44;;;;;;;5.57;5.25;;;;;;;14.50;65.17;101417.28;6114812;23;20053;-73
2023/05/20 07:28:10;;;;;;;5.57;5.22;;;;;;;14.62;65.11;101426.31;6089357;23;20021;-74
2023/05/20 07:30:36;;;;;;;6.35;5.68;;;;;;;14.44;64.75;101385.94;6115262;23;20709;-73
2023/05/20 07:33:03;;;;;;;5.25;4.95;;;;;;;14.87;65.46;101460.06;6091962;23;20489;-73
2023/05/20 07:35:30;;;;;;;5.85;5.45;;;;;;;15.03;65.24;101452.09;6106259;23;20025;-73
2023/05/20 07:37:56;;;;;;;6.13;5.53;;;;;;;14.77;64.01;101354.06;6092207;23;20025;-73
2023/05/20 07:40:22;;;;;;;5.40;5.10;;;;;;;14.72;63.96;101395.78;6119625;23;20017;-73
2023/05/20 07:42:49;;;;;;;5.53;5.15;;;;;;;14.94;65.37;101450.88;6092034;23;20049;-73
2023/05/20 07:45:15;;;;;;;5.90;5.45;;;;;;;15.19;65.62;101481.13;6094274;23;20499;-73
2023/05/20 07:47:42;;;;;;;6.43;5.80;;;;;;;15.33;64.85;101470.59;6119426;23;20435;-72
2023/05/20 07:50:09;;;;;;;5.55;5.25;;;;;;;15.31;64.34;101454.81;6117268;23;20091;-73
2023/05/20 07:52:35;;;;;;;5.95;5.45;;;;;;;15.41;63.90;101465.69;6061436;23;20066;-73
2023/05/20 07:55:21;;;;;;;6.40;5.95;;;;;;;15.40;62.82;101412.91;6084218;23;20038;-73
2023/05/20 07:57:47;;;;;;;6.25;5.65;;;;;;;15.62;63.91;101449.47;6095011;23;20093;-73
2023/05/20 08:00:14;;;;;;;6.82;5.60;;;;;;;15.95;63.29;101451.84;6115814;23;20072;-73
2023/05/20 08:02:41;;;;;;;6.32;5.72;;;;;;;15.95;63.37;101441.25;6090376;23;20037;-73
2023/05/20 08:05:08;;;;;;;5.80;5.32;;;;;;;15.21;63.21;101318.81;6114152;23;20274;-72
2023/05/20 08:07:34;;;;;;;6.88;6.18;;;;;;;15.87;62.24;101423.19;6087072;23;20067;-73
2023/05/20 08:10:01;;;;;;;6.05;5.65;;;;;;;15.65;62.00;101376.03;6115994;23;20103;-72
2023/05/20 08:12:27;;;;;;;6.57;6.07;;;;;;;15.35;63.17;101377.00;6113695;23;20024;-73
2023/05/20 08:14:53;;;;;;;6.10;5.70;;;;;;;15.57;62.71;101378.31;6117379;23;20079;-73
2023/05/20 08:17:20;;;;;;;6.15;5.75;;;;;;;16.06;62.68;101469.72;6090603;23;20032;-73
2023/05/20 08:19:46;;;;;;;5.88;5.38;;;;;;;15.39;62.24;101310.69;6110628;23;20092;-73
2023/05/20 08:22:13;;;;;;;6.07;5.60;;;;;;;16.40;62.02;101451.63;6064052;23;20022;-74
2023/05/20 08:24:40;;;;;;;6.28;5.85;;;;;;;16.43;62.03;101420.50;6108784;23;20069;-73
2023/05/20 08:27:06;;;;;;;6.07;5.55;;;;;;;16.41;61.18;101380.03;6085012;23;20134;-73
2023/05/20 08:29:33;;;;;;;6.80;6.18;;;;;;;16.51;61.15;101423.50;6085023;23;20114;-74
2023/05/20 08:31:59;;;;;;;6.68;6.20;;;;;;;16.28;61.66;101414.41;6086497;23;20026;-74
2023/05/20 08:34:26;;;;;;;6.18;5.78;;;;;;;16.34;61.82;101406.06;6089237;23;20108;-73
2023/05/20 08:36:52;;;;;;;5.97;5.57;;;;;;;16.30;61.62;101420.47;6120892;23;20029;-74
2023/05/20 08:39:19;;;;;;;6.40;6.00;;;;;;;16.38;61.33;101408.50;6114839;23;20037;-73
2023/05/20 08:41:46;;;;;;;6.25;5.85;;;;;;;15.75;61.35;101339.28;6117801;23;20082;-74
2023/05/20 08:44:12;;;;;;;6.18;5.63;;;;;;;16.42;62.25;101455.06;6120804;23;20866;-74
2023/05/20 08:46:40;;;;;;;6.57;5.97;;;;;;;16.13;61.47;101365.94;6088526;23;20022;-73
2023/05/20 08:49:07;;;;;;;8.00;5.82;;;;;;;16.15;61.65;101392.31;6093544;23;20018;-74
2023/05/20 08:51:35;;;;;;;9.65;6.28;;;;;;;16.19;61.80;101403.56;6112975;23;20021;-73
2023/05/20 08:54:02;;;;;;;6.40;5.90;;;;;;;15.93;61.61;101353.97;6090331;23;20664;-74
2023/05/20 08:56:29;;;;;;;6.40;5.90;;;;;;;16.01;61.64;101365.88;6086014;23;20132;-74
2023/05/20 08:58:56;;;;;;;6.10;5.70;;;;;;;16.27;62.94;101449.78;6091350;23;20056;-74
2023/05/20 09:01:24;;;;;;;6.32;5.82;;;;;;;16.60;62.80;101453.00;6088224;23;20025;-74
2023/05/20 09:03:51;;;;;;;6.93;6.32;;;;;;;16.63;61.42;101410.41;6115384;23;20104;-74
2023/05/20 09:06:19;;;;;;;6.45;6.03;;;;;;;17.15;60.62;101434.28;6092432;23;20037;-74
2023/05/20 09:08:48;;;;;;;6.43;6.00;;;;;;;17.14;60.98;101458.28;6117846;23;20025;-74
2023/05/20 09:11:15;;;;;;;5.88;5.50;;;;;;;17.09;62.30;101477.13;6112677;23;20506;-73
2023/05/20 09:13:42;;;;;;;6.30;5.90;;;;;;;17.18;61.98;101504.88;6123789;23;20025;-74
2023/05/20 09:16:10;;;;;;;6.63;6.20;;;;;;;16.57;62.39;101424.91;6122109;23;20102;-74
2023/05/20 09:18:40;;;;;;;6.80;6.30;;;;;;;16.83;61.83;101422.38;6093833;23;20029;-74
2023/05/20 09:21:09;;;;;;;6.88;6.38;;;;;;;16.94;61.62;101430.47;6114743;23;20080;-73
2023/05/20 09:23:37;;;;;;;7.00;6.40;;;;;;;17.57;60.74;101460.63;6113439;23;20017;-73
2023/05/20 09:26:03;;;;;;;6.85;6.35;;;;;;;17.57;60.51;101444.69;6093508;23;20469;-73
2023/05/20 09:28:30;;;;;;;7.15;6.55;;;;;;;17.91;60.97;101509.59;6088782;23;20018;-74
2023/05/20 09:30:58;;;;;;;6.40;5.95;;;;;;;17.68;61.35;101483.75;6113893;23;20047;-73
2023/05/20 09:33:29;;;;;;;6.93;6.40;;;;;;;17.80;59.95;101429.81;6099825;23;20041;-73
2023/05/20 09:36:08;;;;;;;7.03;6.45;;;;;;;17.78;61.89;101532.63;6118463;23;20029;-74
2023/05/20 09:38:38;;;;;;;7.18;6.60;;;;;;;17.36;60.19;101380.72;6112942;23;20040;-74
2023/05/20 09:41:14;;;;;;;6.40;6.00;;;;;;;17.27;60.47;101432.59;6111006;23;20016;-73
2023/05/20 09:43:41;;;;;;;6.75;6.20;;;;;;;17.08;60.77;101403.84;6081035;23;20077;-74
2023/05/20 09:46:09;;;;;;;6.68;6.20;;;;;;;17.10;61.25;101433.75;6112938;23;20021;-74
2023/05/20 09:48:36;;;;;;;6.70;6.30;;;;;;;16.94;60.78;101388.88;6085198;23;20033;-73
2023/05/20 09:51:04;;;;;;;6.55;6.10;;;;;;;16.95;61.26;101410.94;6117930;23;20027;-74
2023/05/20 09:53:30;;;;;;;6.75;6.13;;;;;;;17.21;60.95;101427.72;6087553;23;20034;-73
2023/05/20 09:55:57;;;;;;;7.15;6.50;;;;;;;17.58;61.47;101493.31;6117470;23;20857;-74
2023/05/20 09:58:24;;;;;;;6.80;6.20;;;;;;;17.87;59.60;101447.03;6095329;23;20095;-74
2023/05/20 10:00:52;;;;;;;6.22;5.82;;;;;;;18.34;58.83;101433.91;6116238;23;20090;-74
2023/05/20 10:03:22;;;;;;;6.82;6.35;;;;;;;17.32;59.15;101308.44;6117547;23;20025;-73
2023/05/20 10:06:09;;;;;;;7.00;6.30;;;;;;;17.45;59.01;101318.19;6087401;23;20021;-73
2023/05/20 10:08:54;;;;;;;7.25;6.53;;;;;;;17.89;60.11;101442.47;6094970;23;20602;-74
2023/05/20 10:12:11;;;;;;;6.80;6.20;;;;;;;18.00;60.11;101452.34;6114851;23;20155;-73
2023/05/20 10:15:14;;;;;;;7.10;6.40;;;;;;;18.03;58.94;101395.47;6092444;23;20065;-73
2023/05/20 10:17:50;;;;;;;6.95;6.25;;;;;;;17.71;60.45;101430.47;6090170;23;20020;-74
2023/05/20 10:20:17;;;;;;;6.60;6.15;;;;;;;18.27;58.99;101451.28;6116516;23;20009;-74
2023/05/20 10:22:54;;;;;;;6.95;6.35;;;;;;;18.09;58.92;101403.00;6114902;23;20037;-74
2023/05/20 10:25:26;;;;;;;7.15;6.55;;;;;;;18.18;57.63;101343.03;6089336;23;20456;-74
2023/05/20 10:28:06;;;;;;;7.13;6.50;;;;;;;18.49;59.01;101454.06;6086971;23;20793;-73
2023/05/20 10:30:34;;;;;;;7.13;6.60;;;;;;;18.07;59.85;101442.09;6088173;23;20024;-74
2023/05/20 10:33:05;;;;;;;8.10;6.60;;;;;;;17.98;59.93;101426.81;6088292;23;20033;-74
2023/05/20 10:35:32;;;;;;;6.80;6.20;;;;;;;18.01;59.90;101446.03;6118065;23;20534;-74
2023/05/20 10:38:09;;;;;;;7.38;6.78;;;;;;;17.40;59.53;101337.09;6122944;23;20025;-73
2023/05/20 10:40:36;;;;;;;7.32;6.63;;;;;;;18.13;60.54;101494.78;6111996;23;20113;-73
2023/05/20 10:43:14;;;;;;;8.05;6.70;;;;;;;18.21;59.91;101460.56;6118557;23;20029;-74
2023/05/20 10:45:52;;;;;;;9.95;6.50;;;;;;;18.62;60.42;101515.19;6114456;23;20028;-73
2023/05/20 10:48:22;;;;;;;6.85;6.25;;;;;;;18.14;59.15;101404.38;6116554;23;20025;-72
2023/05/20 10:50:56;;;;;;;8.23;6.95;;;;;;;18.03;59.42;101398.97;6087114;23;20014;-73
2023/05/20 10:53:25;;;;;;;8.35;7.55;;;;;;;18.36;59.38;101444.44;6118091;23;20047;-73
2023/05/20 10:56:00;;;;;;;7.40;6.80;;;;;;;17.68;58.56;101333.31;6111794;23;20656;-73
2023/05/20 10:58:26;;;;;;;9.93;6.85;;;;;;;17.82;60.83;101458.91;6095080;23;20100;-72
2023/05/20 11:00:54;;;;;;;6.97;6.38;;;;;;;18.15;60.80;101482.25;6113428;23;20029;-73
2023/05/20 11:03:22;;;;;;;7.32;6.72;;;;;;;17.60;61.57;101451.59;6083040;23;20047;-73
2023/05/20 11:05:49;;;;;;;7.85;6.93;;;;;;;18.11;61.41;101494.06;6086073;23;20029;-72
2023/05/20 11:08:16;;;;;;;6.97;6.47;;;;;;;17.70;61.21;101456.16;6106511;23;20028;-73
2023/05/20 11:10:57;;;;;;;6.95;6.43;;;;;;;17.17;61.26;101391.75;6115698;23;20048;-73
2023/05/20 11:13:24;;;;;;;7.60;7.00;;;;;;;17.43;62.31;101474.84;5969437;23;20111;-73
2023/05/20 11:15:51;;;;;;;7.60;6.88;;;;;;;17.15;62.77;101476.72;6095048;23;20013;-74
2023/05/20 11:18:18;;;;;;;6.85;6.35;;;;;;;16.87;62.84;101447.72;6087508;23;20034;-74
2023/05/20 11:20:45;;;;;;;8.00;7.30;;;;;;;16.50;62.84;101408.56;6115149;23;20010;-72
2023/05/20 11:23:13;;;;;;;7.55;6.85;;;;;;;17.00;63.65;101491.03;6083327;23;20038;-73
2023/05/20 11:25:40;;;;;;;6.85;6.30;;;;;;;17.19;62.89;101497.75;6112195;23;20078;-73
2023/05/20 11:28:11;;;;;;;6.63;6.13;;;;;;;17.10;63.02;101480.66;6115126;23;20017;-74
2023/05/20 11:30:38;;;;;;;7.43;6.78;;;;;;;16.72;63.66;101405.34;6085241;23;20052;-74